createdAt,value
2018-09-19T00:01:12.501Z,51.30
2018-09-19T00:03:42.535Z,51.40
2018-09-19T00:06:12.549Z,51.50
2018-09-19T00:08:42.503Z,51.40
2018-09-19T00:11:12.478Z,51.50
2018-09-19T00:13:42.550Z,51.60
2018-09-19T00:16:12.605Z,51.60
2018-09-19T00:18:42.554Z,51.80
2018-09-19T00:21:12.572Z,51.90
2018-09-19T00:23:42.600Z,52.10
2018-09-19T00:26:12.621Z,52.20
2018-09-19T00:28:42.645Z,52.20
2018-09-19T00:31:12.803Z,52.30
2018-09-19T00:33:42.827Z,52.50
2018-09-19T00:36:12.754Z,52.50
2018-09-19T00:38:42.797Z,52.60
2018-09-19T00:41:12.799Z,52.60
2018-09-19T00:43:42.822Z,52.80
2018-09-19T00:46:12.726Z,52.70
2018-09-19T00:48:42.959Z,52.80
2018-09-19T00:51:12.995Z,52.90
2018-09-19T00:53:43.020Z,53.00
2018-09-19T00:56:13.007Z,53.10
2018-09-19T00:58:43.001Z,53.30
2018-09-19T01:01:12.937Z,53.30
2018-09-19T01:03:42.954Z,53.50
2018-09-19T01:06:12.945Z,53.50
2018-09-19T01:08:42.957Z,53.60
2018-09-19T01:11:12.956Z,54.30
2018-09-19T01:13:43.028Z,53.80
2018-09-19T01:16:13.014Z,53.80
2018-09-19T01:18:43.052Z,53.90
2018-09-19T01:21:13.018Z,53.90
2018-09-19T01:23:43.205Z,54.00
2018-09-19T01:26:13.213Z,54.20
2018-09-19T01:28:43.222Z,54.20
2018-09-19T01:31:13.314Z,54.20
2018-09-19T01:33:43.313Z,54.40
2018-09-19T01:36:13.344Z,54.50
2018-09-19T01:38:43.370Z,54.60
2018-09-19T01:41:13.360Z,54.60
2018-09-19T01:43:43.371Z,54.70
2018-09-19T01:46:13.338Z,54.80
2018-09-19T01:48:43.350Z,54.90
2018-09-19T01:51:13.351Z,55.00
2018-09-19T01:53:43.362Z,55.00
2018-09-19T01:56:13.390Z,55.10
2018-09-19T01:58:43.494Z,55.20
2018-09-19T02:01:13.501Z,55.30
2018-09-19T02:03:43.929Z,55.50
2018-09-19T02:06:13.967Z,55.40
2018-09-19T02:08:44.017Z,55.40
2018-09-19T02:11:14.036Z,55.40
2018-09-19T02:13:44.068Z,55.70
2018-09-19T02:16:14.095Z,55.80
2018-09-19T02:18:44.801Z,56.10
2018-09-19T02:21:14.878Z,56.30
2018-09-19T02:23:44.936Z,56.30
2018-09-19T02:26:14.899Z,56.40
2018-09-19T02:28:44.946Z,56.90
2018-09-19T02:31:15.177Z,56.90
2018-09-19T02:33:45.233Z,57.00
2018-09-19T02:36:19.289Z,57.10
2018-09-19T02:38:49.290Z,57.30
2018-09-19T02:41:19.816Z,57.40
2018-09-19T02:43:50.337Z,57.50
2018-09-19T02:46:20.398Z,57.70
2018-09-19T02:48:50.520Z,57.70
2018-09-19T02:51:20.479Z,57.90
2018-09-19T02:53:50.481Z,57.90
2018-09-19T02:56:20.517Z,58.00
2018-09-19T02:58:50.566Z,57.90
2018-09-19T03:01:20.477Z,58.00
2018-09-19T03:03:50.422Z,58.10
2018-09-19T03:06:20.321Z,58.40
2018-09-19T03:08:50.334Z,58.50
2018-09-19T03:11:20.218Z,58.40
2018-09-19T03:13:50.094Z,58.50
2018-09-19T03:16:19.947Z,58.70
2018-09-19T03:18:49.804Z,59.00
2018-09-19T03:21:19.711Z,59.10
2018-09-19T03:23:49.762Z,59.50
2018-09-19T03:26:19.817Z,59.60
2018-09-19T03:28:49.796Z,59.90
2018-09-19T03:31:19.794Z,60.10
2018-09-19T03:33:49.824Z,60.30
2018-09-19T03:36:19.904Z,60.10
2018-09-19T03:38:50.160Z,60.20
2018-09-19T03:41:20.436Z,60.30
2018-09-19T03:43:50.361Z,60.80
2018-09-19T03:46:20.353Z,60.20
2018-09-19T03:48:50.381Z,60.30
2018-09-19T03:51:28.744Z,60.20
2018-09-19T03:53:58.749Z,60.30
2018-09-19T03:56:28.673Z,60.50
2018-09-19T03:58:58.811Z,60.60
2018-09-19T04:01:28.794Z,60.60
2018-09-19T04:03:58.888Z,60.90
2018-09-19T04:06:28.895Z,61.10
2018-09-19T04:08:58.918Z,61.70
2018-09-19T04:11:29.014Z,61.70
2018-09-19T04:13:58.968Z,61.60
2018-09-19T04:16:28.936Z,61.40
2018-09-19T04:18:58.871Z,61.60
2018-09-19T04:21:28.902Z,61.80
2018-09-19T04:23:58.801Z,62.00
2018-09-19T04:26:28.876Z,62.00
2018-09-19T04:28:58.869Z,62.10
2018-09-19T04:31:28.937Z,62.00
2018-09-19T04:33:58.857Z,62.50
2018-09-19T04:36:28.818Z,62.70
2018-09-19T04:38:58.970Z,63.10
2018-09-19T04:41:28.996Z,63.20
2018-09-19T04:43:58.941Z,64.30
2018-09-19T04:46:29.114Z,63.20
2018-09-19T04:48:59.098Z,63.40
2018-09-19T04:51:29.142Z,63.40
2018-09-19T04:53:59.193Z,63.60
2018-09-19T04:56:29.447Z,63.90
2018-09-19T04:58:59.678Z,63.80
2018-09-19T05:01:29.770Z,64.00
2018-09-19T05:03:59.907Z,64.30
2018-09-19T05:06:29.943Z,64.20
2018-09-19T05:08:59.902Z,64.60
2018-09-19T05:11:30.060Z,64.70
2018-09-19T05:14:00.055Z,64.70
2018-09-19T05:16:30.043Z,64.60
2018-09-19T05:19:00.076Z,64.90
2018-09-19T05:21:30.095Z,64.80
2018-09-19T05:24:00.131Z,65.20
2018-09-19T05:26:30.112Z,65.30
2018-09-19T05:29:00.159Z,65.50
2018-09-19T05:31:30.406Z,65.80
2018-09-19T05:34:00.437Z,65.90
2018-09-19T05:36:30.456Z,65.90
2018-09-19T05:39:00.456Z,65.90
2018-09-19T05:41:30.472Z,65.50
2018-09-19T05:44:00.437Z,65.60
2018-09-19T05:46:30.712Z,65.80
2018-09-19T05:49:00.769Z,65.70
2018-09-19T05:51:30.774Z,65.80
2018-09-19T05:54:00.822Z,66.00
2018-09-19T05:56:30.820Z,65.80
2018-09-19T05:59:00.833Z,65.70
2018-09-19T06:01:30.770Z,65.70
2018-09-19T06:04:00.756Z,65.90
2018-09-19T06:06:30.742Z,65.90
2018-09-19T06:09:00.697Z,65.90
2018-09-19T06:11:30.715Z,66.00
2018-09-19T06:14:00.676Z,66.20
2018-09-19T06:16:30.774Z,66.20
2018-09-19T06:19:00.808Z,66.70
2018-09-19T06:21:30.999Z,67.10
2018-09-19T06:24:01.007Z,67.50
2018-09-19T06:26:31.385Z,67.60
2018-09-19T06:29:01.326Z,67.70
2018-09-19T06:31:31.482Z,67.70
2018-09-19T06:34:01.531Z,67.80
2018-09-19T06:36:31.561Z,68.10
2018-09-19T06:39:01.514Z,68.60
2018-09-19T06:41:31.503Z,68.80
2018-09-19T06:44:01.501Z,69.20
2018-09-19T06:46:31.541Z,69.40
2018-09-19T06:49:01.609Z,69.40
2018-09-19T06:51:31.655Z,69.60
2018-09-19T06:54:01.642Z,69.80
2018-09-19T06:56:31.804Z,69.80
2018-09-19T06:59:01.811Z,70.20
2018-09-19T07:01:31.855Z,70.40
2018-09-19T07:04:01.872Z,71.00
2018-09-19T07:06:31.953Z,70.80
2018-09-19T07:09:01.915Z,71.20
2018-09-19T07:11:32.200Z,71.40
2018-09-19T07:14:02.194Z,71.50
2018-09-19T07:16:32.458Z,71.10
2018-09-19T07:19:02.541Z,71.00
2018-09-19T07:21:32.533Z,71.00
2018-09-19T07:24:02.560Z,70.80
2018-09-19T07:26:32.606Z,70.60
2018-09-19T07:29:02.648Z,70.40
2018-09-19T07:31:32.678Z,69.80
2018-09-19T07:34:02.876Z,69.50
2018-09-19T07:36:32.914Z,68.90
2018-09-19T07:39:03.039Z,68.50
2018-09-19T07:41:33.062Z,68.00
2018-09-19T07:44:03.042Z,67.40
2018-09-19T07:46:33.101Z,67.10
2018-09-19T07:49:03.060Z,66.70
2018-09-19T07:51:33.056Z,66.00
2018-09-19T07:54:03.000Z,65.40
2018-09-19T07:56:38.570Z,64.70
2018-09-19T07:59:08.894Z,64.30
2018-09-19T08:01:38.875Z,63.80
2018-09-19T08:04:09.050Z,63.00
2018-09-19T08:06:39.036Z,62.70
2018-09-19T08:09:10.237Z,62.20
2018-09-19T08:11:40.240Z,62.00
2018-09-19T08:14:10.218Z,61.80
2018-09-19T08:16:40.164Z,61.30
2018-09-19T08:19:10.266Z,61.60
2018-09-19T08:21:40.309Z,60.90
2018-09-19T08:24:10.310Z,60.70
2018-09-19T08:26:40.217Z,60.30
2018-09-19T08:29:10.201Z,60.10
2018-09-19T08:31:40.181Z,59.70
2018-09-19T08:34:10.186Z,59.60
2018-09-19T08:36:40.085Z,59.70
2018-09-19T08:39:11.203Z,59.80
2018-09-19T08:41:41.199Z,59.90
2018-09-19T08:44:11.197Z,59.90
2018-09-19T08:46:41.218Z,59.50
2018-09-19T08:49:11.127Z,59.50
2018-09-19T08:51:41.184Z,59.20
2018-09-19T08:54:11.242Z,59.00
2018-09-19T08:56:41.255Z,58.90
2018-09-19T08:59:11.307Z,59.40
2018-09-19T09:01:41.323Z,58.60
2018-09-19T09:04:11.339Z,58.50
2018-09-19T09:06:41.319Z,58.30
2018-09-19T09:09:11.372Z,58.20
2018-09-19T09:11:41.439Z,58.10
2018-09-19T09:14:11.530Z,58.10
2018-09-19T09:16:41.448Z,58.10
2018-09-19T09:19:11.475Z,57.90
2018-09-19T09:21:41.388Z,57.80
2018-09-19T09:24:11.444Z,57.60
2018-09-19T09:26:41.440Z,57.30
2018-09-19T09:29:11.415Z,57.00
2018-09-19T09:31:41.392Z,57.00
2018-09-19T09:34:11.373Z,56.80
2018-09-19T09:36:41.395Z,56.60
2018-09-19T09:39:11.431Z,56.40
2018-09-19T09:41:41.444Z,56.30
2018-09-19T09:44:11.458Z,56.20
2018-09-19T09:46:41.438Z,56.00
2018-09-19T09:49:11.475Z,55.90
2018-09-19T09:51:41.378Z,55.70
2018-09-19T09:54:11.371Z,55.60
2018-09-19T09:56:41.375Z,55.40
2018-09-19T09:59:11.429Z,55.00
2018-09-19T10:01:41.446Z,54.60
2018-09-19T10:04:11.817Z,54.60
2018-09-19T10:06:41.860Z,54.40
2018-09-19T10:09:11.814Z,54.10
2018-09-19T10:11:41.782Z,53.70
2018-09-19T10:14:11.788Z,53.60
2018-09-19T10:16:41.781Z,53.40
2018-09-19T10:19:11.818Z,53.50
2018-09-19T10:21:41.793Z,53.10
2018-09-19T10:24:11.862Z,52.90
2018-09-19T10:26:41.841Z,52.80
2018-09-19T10:29:12.067Z,52.60
2018-09-19T10:31:42.160Z,52.50
2018-09-19T10:34:12.189Z,51.90
2018-09-19T10:36:42.111Z,52.10
2018-09-19T10:39:12.214Z,51.90
2018-09-19T10:41:42.157Z,51.40
2018-09-19T10:44:12.211Z,51.40
2018-09-19T10:46:42.211Z,51.20
2018-09-19T10:49:12.218Z,51.30
2018-09-19T10:51:42.289Z,51.50
2018-09-19T10:54:12.327Z,51.40
2018-09-19T10:56:42.237Z,51.40
2018-09-19T10:59:12.240Z,51.30
2018-09-19T11:01:42.224Z,50.90
2018-09-19T11:04:12.342Z,50.80
2018-09-19T11:06:42.312Z,50.20
2018-09-19T11:09:12.920Z,50.40
2018-09-19T11:11:43.339Z,50.70
2018-09-19T11:14:13.359Z,50.70
2018-09-19T11:16:43.342Z,50.70
2018-09-19T11:19:13.361Z,50.10
2018-09-19T11:21:43.452Z,49.70
2018-09-19T11:24:13.772Z,49.80
2018-09-19T11:26:43.739Z,49.60
2018-09-19T11:29:13.893Z,49.60
2018-09-19T11:31:44.019Z,49.60
2018-09-19T11:34:14.054Z,49.30
2018-09-19T11:36:44.096Z,49.40
2018-09-19T11:39:14.260Z,49.20
2018-09-19T11:41:44.372Z,49.40
2018-09-19T11:44:14.415Z,49.10
2018-09-19T11:46:44.428Z,49.00
2018-09-19T11:49:14.300Z,49.10
2018-09-19T11:51:44.336Z,49.10
2018-09-19T11:54:14.342Z,49.00
2018-09-19T11:56:44.351Z,48.90
2018-09-19T11:59:14.398Z,48.70
2018-09-19T12:01:44.454Z,48.80
2018-09-19T12:04:14.501Z,48.80
2018-09-19T12:06:44.564Z,48.80
2018-09-19T12:09:14.682Z,48.80
2018-09-19T12:11:44.718Z,48.80
2018-09-19T12:14:14.781Z,48.80
2018-09-19T12:16:44.872Z,48.90
2018-09-19T12:19:14.867Z,48.70
2018-09-19T12:21:44.852Z,48.80
2018-09-19T12:24:14.804Z,48.70
2018-09-19T12:26:44.901Z,48.60
2018-09-19T12:29:14.822Z,48.50
2018-09-19T12:31:45.087Z,48.30
2018-09-19T12:34:15.172Z,48.10
2018-09-19T12:36:45.212Z,47.90
2018-09-19T12:39:15.362Z,47.80
2018-09-19T12:41:45.416Z,47.60
2018-09-19T12:44:15.380Z,47.60
2018-09-19T12:46:45.405Z,47.30
2018-09-19T12:49:15.545Z,47.50
2018-09-19T12:51:45.599Z,47.60
2018-09-19T12:54:15.657Z,47.50
2018-09-19T12:56:45.716Z,47.00
2018-09-19T12:59:15.826Z,47.10
2018-09-19T13:01:45.911Z,47.10
2018-09-19T13:04:16.029Z,47.10
2018-09-19T13:06:46.158Z,47.10
2018-09-19T13:09:16.151Z,46.80
2018-09-19T13:11:46.193Z,46.30
2018-09-19T13:14:16.150Z,45.70
2018-09-19T13:16:46.140Z,45.80
2018-09-19T13:19:20.009Z,45.50
2018-09-19T13:21:51.731Z,45.30
2018-09-19T13:24:21.708Z,45.30
2018-09-19T13:26:51.760Z,45.00
2018-09-19T13:29:21.822Z,45.00
2018-09-19T13:31:52.403Z,44.90
2018-09-19T13:34:22.423Z,44.70
2018-09-19T13:36:54.095Z,44.40
2018-09-19T13:39:24.116Z,44.40
2018-09-19T13:41:54.251Z,44.30
2018-09-19T13:44:24.241Z,43.90
2018-09-19T13:46:54.558Z,43.40
2018-09-19T13:49:29.980Z,44.10
2018-09-19T13:51:59.937Z,43.50
2018-09-19T13:54:29.983Z,43.10
2018-09-19T13:56:59.988Z,43.30
2018-09-19T13:59:29.941Z,43.30
2018-09-19T14:01:59.965Z,43.30
2018-09-19T14:04:29.911Z,43.30
2018-09-19T14:06:59.928Z,43.20
2018-09-19T14:09:29.911Z,43.10
2018-09-19T14:11:59.957Z,42.90
2018-09-19T14:14:29.965Z,42.80
2018-09-19T14:16:59.960Z,42.90
2018-09-19T14:19:30.039Z,42.90
2018-09-19T14:22:00.105Z,43.00
2018-09-19T14:24:30.152Z,42.70
2018-09-19T14:27:00.243Z,42.80
2018-09-19T14:29:30.358Z,42.70
2018-09-19T14:32:00.411Z,42.70
2018-09-19T14:34:30.464Z,42.50
2018-09-19T14:37:00.497Z,42.30
2018-09-19T14:39:30.596Z,42.30
2018-09-19T14:42:00.622Z,42.20
2018-09-19T14:44:30.510Z,41.80
2018-09-19T14:47:00.549Z,41.90
2018-09-19T14:49:30.600Z,41.80
2018-09-19T14:52:00.915Z,41.70
2018-09-19T14:54:31.058Z,41.60
2018-09-19T14:57:00.959Z,41.70
2018-09-19T14:59:30.878Z,41.50
2018-09-19T15:02:00.821Z,41.30
2018-09-19T15:04:30.821Z,41.40
2018-09-19T15:07:00.793Z,41.40
2018-09-19T15:09:30.750Z,41.30
2018-09-19T15:12:00.799Z,41.00
2018-09-19T15:14:30.809Z,41.10
2018-09-19T15:17:00.860Z,40.90
2018-09-19T15:19:30.901Z,40.80
2018-09-19T15:22:00.961Z,40.90
2018-09-19T15:24:30.965Z,40.90
2018-09-19T15:27:01.050Z,40.90
2018-09-19T15:29:31.059Z,40.90
2018-09-19T15:32:01.142Z,40.80
2018-09-19T15:34:31.174Z,40.90
2018-09-19T15:37:01.203Z,40.90
2018-09-19T15:39:31.289Z,40.70
2018-09-19T15:42:01.256Z,40.70
2018-09-19T15:44:31.441Z,40.60
2018-09-19T15:47:01.495Z,40.40
2018-09-19T15:49:31.514Z,40.40
2018-09-19T15:52:01.527Z,40.30
2018-09-19T15:54:31.501Z,40.30
2018-09-19T15:57:01.543Z,40.20
2018-09-19T15:59:31.690Z,40.10
2018-09-19T16:02:01.701Z,40.10
2018-09-19T16:04:31.756Z,40.00
2018-09-19T16:07:01.938Z,40.10
2018-09-19T16:09:32.064Z,40.00
2018-09-19T16:12:03.534Z,40.00
2018-09-19T16:14:34.598Z,40.10
2018-09-19T16:17:05.665Z,40.10
2018-09-19T16:19:35.650Z,40.20
2018-09-19T16:22:06.155Z,40.20
2018-09-19T16:24:37.480Z,40.10
2018-09-19T16:27:08.734Z,40.00
2018-09-19T16:29:39.331Z,40.00
2018-09-19T16:32:09.327Z,39.90
2018-09-19T16:34:39.589Z,39.80
2018-09-19T16:37:09.674Z,39.80
2018-09-19T16:39:39.694Z,40.00
2018-09-19T16:42:09.754Z,40.00
2018-09-19T16:44:39.654Z,40.10
2018-09-19T16:47:09.661Z,40.20
2018-09-19T16:49:39.646Z,40.20
2018-09-19T16:52:09.648Z,40.20
2018-09-19T16:54:39.922Z,40.90
2018-09-19T16:57:10.226Z,40.40
2018-09-19T16:59:40.358Z,40.30
2018-09-19T17:02:16.260Z,40.40
2018-09-19T17:04:46.263Z,40.50
2018-09-19T17:07:16.155Z,40.50
2018-09-19T17:09:46.270Z,40.50
2018-09-19T17:12:16.230Z,40.50
2018-09-19T17:14:46.544Z,40.60
2018-09-19T17:17:17.415Z,40.70
2018-09-19T17:19:47.859Z,40.80
2018-09-19T17:22:17.907Z,40.90
2018-09-19T17:24:47.821Z,41.00
2018-09-19T17:27:17.774Z,41.10
2018-09-19T17:29:47.643Z,41.20
2018-09-19T17:32:17.723Z,41.30
2018-09-19T17:34:50.627Z,41.40
2018-09-19T17:37:20.841Z,41.50
2018-09-19T17:39:50.766Z,41.60
2018-09-19T17:42:20.689Z,41.80
2018-09-19T17:44:50.614Z,41.80
2018-09-19T17:47:20.777Z,42.00
2018-09-19T17:49:50.835Z,42.20
2018-09-19T17:52:20.960Z,42.30
2018-09-19T17:54:50.966Z,42.50
2018-09-19T17:57:20.881Z,42.70
2018-09-19T17:59:50.886Z,42.70
2018-09-19T18:02:20.922Z,42.80
2018-09-19T18:04:50.871Z,42.90
2018-09-19T18:07:20.933Z,43.00
2018-09-19T18:09:51.217Z,43.10
2018-09-19T18:12:21.306Z,43.30
2018-09-19T18:14:51.259Z,43.30
2018-09-19T18:17:21.369Z,43.40
2018-09-19T18:19:51.780Z,43.40
2018-09-19T18:22:21.929Z,43.40
2018-09-19T18:24:51.820Z,43.40
2018-09-19T18:27:21.834Z,43.40
2018-09-19T18:29:51.958Z,43.40
2018-09-19T18:32:22.017Z,43.50
2018-09-19T18:34:52.197Z,43.50
2018-09-19T18:37:22.179Z,43.60
2018-09-19T18:39:52.243Z,43.60
2018-09-19T18:42:22.172Z,43.60
2018-09-19T18:44:52.207Z,43.70
2018-09-19T18:47:22.098Z,43.70
2018-09-19T18:49:52.160Z,43.80
2018-09-19T18:52:22.190Z,43.80
2018-09-19T18:54:52.141Z,43.80
2018-09-19T18:57:22.436Z,43.80
2018-09-19T18:59:53.178Z,43.90
2018-09-19T19:02:23.706Z,44.00
2018-09-19T19:04:54.037Z,44.10
2018-09-19T19:07:24.353Z,44.00
2018-09-19T19:09:54.780Z,44.10
2018-09-19T19:12:25.275Z,44.20
2018-09-19T19:14:55.846Z,44.20
2018-09-19T19:17:26.405Z,44.20
2018-09-19T19:19:56.989Z,44.20
2018-09-19T19:22:27.547Z,44.30
2018-09-19T19:24:58.123Z,44.40
2018-09-19T19:27:28.648Z,44.40
2018-09-19T19:29:58.930Z,44.50
2018-09-19T19:32:29.121Z,44.50
2018-09-19T19:34:59.159Z,44.60
2018-09-19T19:37:29.555Z,44.60
2018-09-19T19:39:59.713Z,44.70
2018-09-19T19:42:29.718Z,44.80
2018-09-19T19:44:59.648Z,44.80
2018-09-19T19:47:29.659Z,44.90
2018-09-19T19:49:59.782Z,45.00
2018-09-19T19:52:29.906Z,45.00
2018-09-19T19:55:00.407Z,45.20
2018-09-19T19:57:31.019Z,45.20
2018-09-19T20:00:01.487Z,45.30
2018-09-19T20:02:31.847Z,45.40
2018-09-19T20:05:02.320Z,45.40
2018-09-19T20:07:32.562Z,45.70
2018-09-19T20:10:02.845Z,45.70
2018-09-19T20:12:32.912Z,45.80
2018-09-19T20:15:02.958Z,45.90
2018-09-19T20:17:33.023Z,46.00
2018-09-19T20:20:02.953Z,46.00
2018-09-19T20:22:32.972Z,46.10
2018-09-19T20:25:03.070Z,46.20
2018-09-19T20:27:33.169Z,46.30
2018-09-19T20:30:03.173Z,46.30
2018-09-19T20:32:33.126Z,46.40
2018-09-19T20:35:03.081Z,46.30
2018-09-19T20:37:33.097Z,46.30
2018-09-19T20:40:03.163Z,46.30
2018-09-19T20:42:33.134Z,46.40
2018-09-19T20:45:03.093Z,46.40
2018-09-19T20:47:33.061Z,46.50
2018-09-19T20:50:03.046Z,46.60
2018-09-19T20:52:33.081Z,46.70
2018-09-19T20:55:03.117Z,46.80
2018-09-19T20:57:33.410Z,46.90
2018-09-19T21:00:03.503Z,47.00
2018-09-19T21:02:33.568Z,47.10
2018-09-19T21:05:03.674Z,47.20
2018-09-19T21:07:33.671Z,47.30
2018-09-19T21:10:03.855Z,47.50
2018-09-19T21:12:33.818Z,47.60
2018-09-19T21:15:03.844Z,47.60
2018-09-19T21:17:33.800Z,47.80
2018-09-19T21:20:03.710Z,47.80
2018-09-19T21:22:33.762Z,48.00
2018-09-19T21:25:03.719Z,48.10
2018-09-19T21:27:33.758Z,48.20
2018-09-19T21:30:03.991Z,48.40
2018-09-19T21:32:33.975Z,48.40
2018-09-19T21:35:03.921Z,48.60
2018-09-19T21:37:33.898Z,48.60
2018-09-19T21:40:03.930Z,48.70
2018-09-19T21:42:33.949Z,48.90
2018-09-19T21:45:03.973Z,49.00
2018-09-19T21:47:36.876Z,49.00
2018-09-19T21:50:07.030Z,49.10
2018-09-19T21:52:37.029Z,49.10
2018-09-19T21:55:07.029Z,49.40
2018-09-19T21:57:37.129Z,49.40
2018-09-19T22:00:08.799Z,49.50
2018-09-19T22:02:38.644Z,49.40
2018-09-19T22:05:08.802Z,49.50
2018-09-19T22:07:38.740Z,49.50
2018-09-19T22:10:08.721Z,49.60
2018-09-19T22:12:38.769Z,49.70
2018-09-19T22:15:08.845Z,49.80
2018-09-19T22:17:38.790Z,49.90
2018-09-19T22:20:08.929Z,49.80
2018-09-19T22:22:38.833Z,49.90
2018-09-19T22:25:08.891Z,49.90
2018-09-19T22:27:38.939Z,50.00
2018-09-19T22:30:09.069Z,50.20
2018-09-19T22:32:39.019Z,50.20
2018-09-19T22:35:09.069Z,50.20
2018-09-19T22:37:39.009Z,50.40
2018-09-19T22:40:09.054Z,50.50
2018-09-19T22:42:39.039Z,50.60
2018-09-19T22:45:09.058Z,50.60
2018-09-19T22:47:39.189Z,50.70
2018-09-19T22:50:09.244Z,50.80
2018-09-19T22:52:39.170Z,50.90
2018-09-19T22:55:09.212Z,51.10
2018-09-19T22:57:39.220Z,51.20
2018-09-19T23:00:09.313Z,51.20
2018-09-19T23:02:53.393Z,51.30
2018-09-19T23:05:23.388Z,51.40
2018-09-19T23:07:53.372Z,51.60
2018-09-19T23:10:23.349Z,51.70
2018-09-19T23:12:53.285Z,51.80
2018-09-19T23:15:23.312Z,51.90
2018-09-19T23:17:53.339Z,52.10
2018-09-19T23:20:29.910Z,52.00
2018-09-19T23:22:59.910Z,52.00
2018-09-19T23:25:29.898Z,52.10
2018-09-19T23:27:59.952Z,52.20
2018-09-19T23:30:29.912Z,52.20
2018-09-19T23:32:59.855Z,52.20
2018-09-19T23:35:29.928Z,52.30
2018-09-19T23:37:59.965Z,52.40
2018-09-19T23:40:30.041Z,52.40
2018-09-19T23:43:00.043Z,52.40
2018-09-19T23:45:30.104Z,52.50
2018-09-19T23:48:00.148Z,52.60
2018-09-19T23:50:30.245Z,52.70
2018-09-19T23:53:00.294Z,52.80
2018-09-19T23:55:30.376Z,53.00
2018-09-19T23:58:00.470Z,53.10
